Strona główna
Zdjęcia satelitarne 15-dni prognozyKlimatMeteorologia morska Cyklony Błyskawica LotniskoFAQ Gazetka O
Pogoda : Europa Afryka Ameryka Północna Ameryka Południowa Azja Australia-Oceania Inny
Języki Kontakt

Katowice, Polska

Pyrzowice

Szerokość geograficzna: 50-28-27N, Długość geograficzna: 019-04-48E, wysokość: 284 m


METAR: EPKT 171700Z 08006KT CAVOK 16/11 Q1020
short-TAF: EPKT 171430Z 1715/1724 09010KT CAVOK
long-TAF: przestarzały (19461 godziny)

czas: 19:31 (17:31 UTC)

Aktualna obserwacja pogody

Raport powstał 31 minut temu, godzina 17:00 UTC  
Wiatr 06 kt od wschód
Temperatura 16°C
Wilgotność 72%
Ciśnienie 1020 hPa
Widzialność 10 km lub więcej
Brak chmur poniżej 1500 m i brak chmur cumulonimbus

Jednostka miary

Prognoza

Raport powstał 2 godziny i 58 minut temu, godzina 14:33 UTC  
Prognoza ważna od 17 godzina 15 UTC do 17 godzina 24 UTC
Wiatr 10 kt od wschód
Widzialność 10 km lub więcej
Brak chmur poniżej 1500 m i brak chmur cumulonimbus
Informacje na tej stronie internetowej podlegają klauzuli o wyłączeniu odpowiedzialności
Pogoda : Europa Afryka Ameryka Północna Ameryka Południowa Azja Australia-Oceania Inny
Zdjęcia satelitarne 15-dni prognozyKlimatMeteorologia morska Cyklony Błyskawica LotniskoFAQ Języki Kontakt Gazetka O